Rossosh', Russia
Current Conditions -  °F | °C
As of 9:00 PM on Monday 22 Dec 2014 (Local Time) from UUOO Reporting Station
Light Snow Light Snow  
Wind Chill: 24°   Ceiling: 1100
Heat Index: 30°   Visibility: 3mi
Dew Point: 28°   Wind: 7mph
Humidity: 93%   Direction: 180°S
Pressure: 29.68"   Gusts: NA
Location:  50.15°N, 39.28°E
Report Text: UUOO 221800Z 18003MPS 5000 -SN OVC011 M01/M02 Q1005 TEMPO 1100SN BKN004 RMK 30290145
Loading
Personal Weather Stations






























Interactive Weather Map New forecast layout! Learn more

10-Day Weather Forecast

Advertisements
Track Severe Weather on mobile